createdAt,value
2019-03-15T00:01:40.522Z,4.00
2019-03-15T00:04:09.657Z,3.62
2019-03-15T00:06:38.776Z,3.40
2019-03-15T00:09:10.804Z,4.20
2019-03-15T00:11:39.942Z,2.10
2019-03-15T00:14:09.073Z,6.33
2019-03-15T00:16:38.206Z,2.45
2019-03-15T00:19:07.333Z,3.77
2019-03-15T00:21:36.453Z,4.87
2019-03-15T00:24:05.558Z,3.60
2019-03-15T00:26:34.747Z,5.62
2019-03-15T00:29:03.865Z,2.85
2019-03-15T00:31:32.982Z,9.58
2019-03-15T00:34:02.145Z,5.08
2019-03-15T00:36:31.223Z,8.98
2019-03-15T00:39:00.333Z,2.20
2019-03-15T00:41:29.464Z,5.62
2019-03-15T00:43:58.575Z,5.70
2019-03-15T00:46:27.681Z,2.05
2019-03-15T00:48:56.808Z,5.47
2019-03-15T00:51:25.922Z,2.45
2019-03-15T00:53:55.157Z,2.60
2019-03-15T00:56:24.248Z,2.17
2019-03-15T00:58:53.365Z,6.03
2019-03-15T01:01:22.480Z,2.22
2019-03-15T01:03:51.635Z,4.15
2019-03-15T01:06:20.747Z,4.45
2019-03-15T01:08:49.864Z,4.05
2019-03-15T01:11:18.998Z,2.17
2019-03-15T01:13:48.107Z,4.60
2019-03-15T01:16:17.223Z,3.72
2019-03-15T01:18:46.357Z,1.65
2019-03-15T01:21:15.487Z,5.70
2019-03-15T01:23:44.588Z,4.97
2019-03-15T01:26:13.718Z,1.90
2019-03-15T01:28:42.623Z,5.65
2019-03-15T01:31:11.697Z,3.25
2019-03-15T01:33:40.837Z,4.03
2019-03-15T01:36:10.279Z,3.30
2019-03-15T01:38:39.384Z,5.25
2019-03-15T01:41:08.507Z,9.10
2019-03-15T01:43:38.476Z,7.42
2019-03-15T01:46:08.425Z,7.00
2019-03-15T01:48:37.615Z,2.50
2019-03-15T01:51:06.506Z,3.75
2019-03-15T01:53:35.580Z,5.97
2019-03-15T01:56:04.707Z,3.17
2019-03-15T01:58:33.823Z,3.52
2019-03-15T02:01:02.935Z,4.60
2019-03-15T02:03:32.063Z,2.50
2019-03-15T02:06:01.185Z,1.95
2019-03-15T02:08:30.301Z,6.42
2019-03-15T02:10:59.437Z,7.80
2019-03-15T02:13:28.583Z,6.05
2019-03-15T02:15:57.655Z,3.67
2019-03-15T02:18:26.782Z,1.98
2019-03-15T02:20:55.895Z,3.20
2019-03-15T02:23:25.010Z,3.70
2019-03-15T02:25:54.146Z,2.37
2019-03-15T02:28:23.256Z,2.00
2019-03-15T02:30:52.375Z,4.67
2019-03-15T02:33:21.529Z,2.15
2019-03-15T02:35:50.912Z,5.83
2019-03-15T02:38:20.027Z,3.15
2019-03-15T02:40:49.226Z,3.75
2019-03-15T02:43:19.119Z,3.42
2019-03-15T02:45:48.501Z,3.52
2019-03-15T02:48:17.930Z,7.20
2019-03-15T02:50:47.325Z,3.50
2019-03-15T02:53:16.446Z,3.58
2019-03-15T02:55:45.574Z,3.47
2019-03-15T02:58:14.467Z,3.80
2019-03-15T03:00:43.543Z,4.75
2019-03-15T03:03:12.679Z,4.67
2019-03-15T03:05:41.574Z,5.70
2019-03-15T03:08:14.122Z,1.95
2019-03-15T03:10:43.536Z,2.60
2019-03-15T03:13:12.652Z,2.52
2019-03-15T03:15:41.762Z,4.65
2019-03-15T03:18:10.890Z,2.90
2019-03-15T03:20:40.031Z,2.05
2019-03-15T03:23:09.124Z,4.40
2019-03-15T03:25:38.511Z,3.58
2019-03-15T03:28:07.627Z,3.58
2019-03-15T03:30:36.783Z,4.67
2019-03-15T03:33:05.947Z,4.42
2019-03-15T03:35:35.072Z,3.72
2019-03-15T03:38:04.188Z,1.77
2019-03-15T03:40:33.318Z,4.85
2019-03-15T03:43:02.430Z,3.35
2019-03-15T03:45:31.591Z,4.90
2019-03-15T03:48:01.044Z,2.80
2019-03-15T03:50:30.166Z,4.60
2019-03-15T03:52:59.286Z,2.52
2019-03-15T03:55:28.397Z,3.17
2019-03-15T03:57:57.851Z,1.95
2019-03-15T04:02:55.557Z,1.77
2019-03-15T04:05:24.685Z,4.33
2019-03-15T04:07:53.831Z,2.83
2019-03-15T04:10:23.034Z,5.00
2019-03-15T04:12:52.141Z,3.02
2019-03-15T04:15:21.304Z,3.80
2019-03-15T04:17:50.434Z,2.90
2019-03-15T04:20:19.561Z,1.42
2019-03-15T04:22:48.668Z,4.10
2019-03-15T04:25:17.794Z,2.62
2019-03-15T04:27:46.924Z,4.17
2019-03-15T04:30:16.039Z,2.67
2019-03-15T04:32:45.168Z,4.85
2019-03-15T04:35:14.274Z,3.58
2019-03-15T04:37:43.421Z,3.40
2019-03-15T04:40:12.920Z,2.62
2019-03-15T04:45:10.469Z,3.85
2019-03-15T04:47:39.621Z,5.00
2019-03-15T04:50:09.282Z,4.28
2019-03-15T04:52:38.418Z,5.12
2019-03-15T04:55:07.602Z,2.77
2019-03-15T04:57:36.761Z,1.80
2019-03-15T05:00:12.787Z,3.92
2019-03-15T05:02:42.263Z,1.70
2019-03-15T05:07:39.796Z,1.90
2019-03-15T05:10:10.048Z,2.60
2019-03-15T05:12:39.178Z,8.13
2019-03-15T05:15:10.147Z,4.20
2019-03-15T05:17:39.262Z,2.25
2019-03-15T05:20:09.804Z,3.50
2019-03-15T05:22:38.980Z,3.22
2019-03-15T05:25:08.498Z,4.62
2019-03-15T05:30:10.088Z,4.80
2019-03-15T05:32:39.218Z,2.45
2019-03-15T05:40:45.451Z,2.70
2019-03-15T05:43:15.665Z,3.72
2019-03-15T05:46:32.124Z,4.05
2019-03-15T05:48:36.767Z,6.75
2019-03-15T05:51:32.289Z,5.00
2019-03-15T05:54:47.605Z,2.75
2019-03-15T05:57:35.231Z,2.40
2019-03-15T06:00:19.059Z,4.25
2019-03-15T06:02:50.767Z,2.37
2019-03-15T06:05:27.782Z,3.62
2019-03-15T06:11:35.324Z,3.10
2019-03-15T06:14:25.306Z,2.87
2019-03-15T06:17:25.720Z,3.27
2019-03-15T06:19:54.535Z,5.15
2019-03-15T06:22:45.760Z,2.72
2019-03-15T06:26:55.946Z,2.35
2019-03-15T06:28:17.295Z,1.98
2019-03-15T06:30:47.928Z,2.67
2019-03-15T06:33:29.013Z,2.37
2019-03-15T06:36:07.211Z,1.87
2019-03-15T06:38:43.909Z,4.33
2019-03-15T06:44:15.260Z,3.27
2019-03-15T06:49:40.958Z,1.98
2019-03-15T06:52:12.263Z,2.65
2019-03-15T06:57:36.987Z,4.97
2019-03-15T07:05:20.831Z,4.37
2019-03-15T07:08:37.627Z,2.90
2019-03-15T07:11:08.273Z,5.37
2019-03-15T07:13:40.283Z,2.20
2019-03-15T07:19:30.331Z,4.17
2019-03-15T07:22:12.522Z,6.58
2019-03-15T07:24:56.667Z,2.80
2019-03-15T07:32:07.416Z,4.72
2019-03-15T07:33:05.580Z,7.03
2019-03-15T07:35:43.581Z,4.20
2019-03-15T07:38:23.186Z,2.47
2019-03-15T07:43:41.551Z,2.00
2019-03-15T07:46:12.509Z,4.33
2019-03-15T07:49:01.692Z,9.05
2019-03-15T07:51:33.882Z,7.25
2019-03-15T07:54:17.434Z,3.33
2019-03-15T07:56:46.600Z,4.95
2019-03-15T07:59:19.598Z,6.15
2019-03-15T08:02:13.208Z,4.90
2019-03-15T08:04:50.459Z,8.35
2019-03-15T08:07:37.746Z,3.92
2019-03-15T08:10:12.912Z,4.60
2019-03-15T08:12:50.158Z,3.42
2019-03-15T08:15:46.892Z,4.17
2019-03-15T08:18:21.881Z,6.87
2019-03-15T08:21:10.571Z,2.92
2019-03-15T08:23:42.315Z,2.30
2019-03-15T08:26:49.864Z,4.55
2019-03-15T08:30:53.385Z,4.03
2019-03-15T08:33:09.161Z,3.58
2019-03-15T08:35:26.129Z,2.98
2019-03-15T08:41:02.008Z,2.72
2019-03-15T08:43:31.224Z,2.50
2019-03-15T08:46:18.836Z,2.30
2019-03-15T08:48:48.003Z,2.20
2019-03-15T08:54:36.217Z,6.30
2019-03-15T08:57:10.721Z,3.15
2019-03-15T08:59:52.392Z,1.92
2019-03-15T09:02:10.875Z,5.58
2019-03-15T09:05:14.402Z,4.41
2019-03-15T09:07:45.292Z,2.65
2019-03-15T09:10:29.264Z,8.20
2019-03-15T09:12:56.057Z,3.35
2019-03-15T09:15:27.276Z,2.62
2019-03-15T09:18:07.037Z,2.02
2019-03-15T09:20:45.869Z,4.10
2019-03-15T09:23:36.007Z,2.85
2019-03-15T09:26:30.009Z,1.92
2019-03-15T09:28:58.896Z,3.85
2019-03-15T09:31:27.763Z,2.42
2019-03-15T09:37:06.932Z,10.65
2019-03-15T09:39:36.086Z,4.22
2019-03-15T09:42:26.233Z,9.55
2019-03-15T09:45:20.051Z,7.42
2019-03-15T09:48:37.059Z,2.12
2019-03-15T09:54:01.918Z,3.42
2019-03-15T09:56:31.107Z,1.72
2019-03-15T09:59:00.250Z,1.85
2019-03-15T10:02:11.240Z,3.22
2019-03-15T10:05:10.753Z,1.95
2019-03-15T10:07:39.153Z,3.55
2019-03-15T10:10:13.487Z,4.97
2019-03-15T10:12:35.825Z,2.10
2019-03-15T10:15:08.045Z,4.12
2019-03-15T10:17:47.668Z,24.30
2019-03-15T10:20:16.891Z,14.10
2019-03-15T10:23:15.527Z,12.52
2019-03-15T10:29:15.600Z,11.60
2019-03-15T10:32:26.595Z,8.15
2019-03-15T10:38:03.875Z,10.70
2019-03-15T10:40:33.110Z,10.75
2019-03-15T10:46:36.253Z,8.95
2019-03-15T10:52:26.482Z,11.35
2019-03-15T10:55:31.017Z,12.70
2019-03-15T10:57:59.984Z,8.68
2019-03-15T11:00:29.383Z,6.50
2019-03-15T11:02:58.361Z,7.92
2019-03-15T11:05:46.795Z,12.45
2019-03-15T11:09:04.013Z,9.38
2019-03-15T11:11:43.701Z,15.33
2019-03-15T11:17:14.716Z,7.00
2019-03-15T11:19:43.861Z,7.30
2019-03-15T11:22:12.808Z,9.33
2019-03-15T11:24:43.991Z,7.28
2019-03-15T11:27:12.769Z,15.00
2019-03-15T11:29:43.974Z,7.60
2019-03-15T11:35:22.118Z,6.47
2019-03-15T11:38:03.278Z,5.67
2019-03-15T11:43:41.952Z,6.58
2019-03-15T11:47:56.371Z,5.75
2019-03-15T11:49:35.633Z,8.73
2019-03-15T11:52:30.284Z,5.78
2019-03-15T11:55:35.391Z,4.62
2019-03-15T11:58:30.924Z,4.67
2019-03-15T12:01:16.044Z,6.22
2019-03-15T12:03:59.175Z,3.92
2019-03-15T12:06:25.236Z,4.22
2019-03-15T12:08:54.449Z,5.58
2019-03-15T12:12:00.173Z,4.37
2019-03-15T12:14:43.236Z,3.90
2019-03-15T12:17:35.521Z,4.45
2019-03-15T12:20:13.489Z,3.22
2019-03-15T12:26:10.044Z,4.22
2019-03-15T12:28:56.146Z,3.45
2019-03-15T12:31:22.514Z,5.05
2019-03-15T12:33:51.616Z,3.23
2019-03-15T12:36:20.749Z,4.53
2019-03-15T12:39:42.953Z,3.83
2019-03-15T12:42:18.840Z,4.47
2019-03-15T12:45:47.382Z,4.20
2019-03-15T12:47:52.561Z,3.75
2019-03-15T12:50:26.499Z,5.69
2019-03-15T12:52:55.067Z,3.60
2019-03-15T12:55:24.255Z,3.50
2019-03-15T13:01:13.312Z,4.53
2019-03-15T13:06:57.226Z,3.45
2019-03-15T13:09:26.342Z,2.12
2019-03-15T13:11:55.464Z,2.50
2019-03-15T13:14:24.673Z,5.70
2019-03-15T13:17:20.049Z,6.42
2019-03-15T13:19:54.974Z,5.10
2019-03-15T13:22:21.626Z,4.62
2019-03-15T13:25:32.122Z,5.78
2019-03-15T13:28:03.843Z,3.92
2019-03-15T13:30:49.652Z,3.75
2019-03-15T13:33:20.428Z,2.12
2019-03-15T13:35:43.964Z,4.67
2019-03-15T13:38:13.179Z,4.22
2019-03-15T13:40:42.591Z,4.50
2019-03-15T13:43:21.993Z,4.35
2019-03-15T13:48:54.682Z,2.65
2019-03-15T13:51:40.235Z,4.60
2019-03-15T13:57:20.723Z,2.58
2019-03-15T13:59:39.571Z,5.45
2019-03-15T14:02:08.736Z,4.37
2019-03-15T14:04:37.967Z,2.47
2019-03-15T14:07:16.091Z,2.80
2019-03-15T14:09:45.049Z,3.35
2019-03-15T14:12:14.073Z,5.03
2019-03-15T14:17:39.932Z,2.00
2019-03-15T14:20:16.049Z,3.80
2019-03-15T14:22:45.203Z,4.40
2019-03-15T14:25:28.357Z,3.90
2019-03-15T14:27:57.595Z,2.50
2019-03-15T14:30:26.843Z,6.42
2019-03-15T14:32:57.769Z,1.87
2019-03-15T14:35:26.931Z,5.12
2019-03-15T14:37:55.919Z,2.90
2019-03-15T14:40:27.996Z,2.52
2019-03-15T14:43:00.166Z,2.95
2019-03-15T14:45:37.473Z,3.87
2019-03-15T14:48:46.730Z,3.62
2019-03-15T14:54:17.542Z,4.03
2019-03-15T14:57:06.185Z,1.80
2019-03-15T14:59:35.491Z,3.48
2019-03-15T15:02:04.640Z,4.28
2019-03-15T15:04:33.884Z,6.30
2019-03-15T15:07:03.110Z,3.95
2019-03-15T15:09:32.218Z,2.27
2019-03-15T15:12:01.181Z,4.85
2019-03-15T15:14:30.362Z,1.72
2019-03-15T15:17:06.681Z,2.33
2019-03-15T15:19:53.065Z,2.55
2019-03-15T15:25:18.601Z,1.77
2019-03-15T15:30:49.613Z,4.87
2019-03-15T15:33:06.191Z,2.40
2019-03-15T15:35:35.380Z,3.75
2019-03-15T15:38:04.565Z,2.25
2019-03-15T15:40:33.866Z,3.62
2019-03-15T15:43:03.009Z,3.42
2019-03-15T15:45:32.141Z,2.65
2019-03-15T15:48:01.285Z,4.07
2019-03-15T15:51:04.818Z,5.12
2019-03-15T15:53:48.795Z,1.70
2019-03-15T16:02:38.042Z,2.23
2019-03-15T16:05:28.003Z,1.72
2019-03-15T16:10:44.404Z,1.90
2019-03-15T16:13:40.841Z,1.87
2019-03-15T16:19:27.080Z,1.70
2019-03-15T16:22:23.377Z,3.80
2019-03-15T16:25:37.364Z,3.42
2019-03-15T16:27:53.975Z,2.62
2019-03-15T16:30:23.183Z,6.03
2019-03-15T16:35:39.080Z,2.10
2019-03-15T16:38:08.197Z,2.42
2019-03-15T16:40:37.492Z,5.10
2019-03-15T16:43:08.356Z,2.22
2019-03-15T16:45:39.150Z,2.83
2019-03-15T16:48:08.287Z,4.08
2019-03-15T16:50:37.416Z,57.78
2019-03-15T16:54:12.094Z,73.50
2019-03-15T16:56:40.539Z,131.85
2019-03-15T16:59:09.701Z,166.65
2019-03-15T17:01:38.936Z,145.12
2019-03-15T17:04:08.134Z,117.20
2019-03-15T17:06:37.249Z,120.72
2019-03-15T17:09:06.979Z,107.07
2019-03-15T17:11:36.155Z,112.35
2019-03-15T17:14:30.018Z,97.42
2019-03-15T17:17:02.297Z,91.28
2019-03-15T17:19:31.440Z,74.53
2019-03-15T17:22:00.582Z,74.12
2019-03-15T17:24:29.825Z,71.20
2019-03-15T17:26:58.965Z,66.60
2019-03-15T17:29:28.053Z,61.98
2019-03-15T17:31:57.219Z,56.90
2019-03-15T17:34:26.350Z,48.68
2019-03-15T17:37:06.059Z,47.90
2019-03-15T17:42:29.644Z,41.23
2019-03-15T17:51:31.079Z,31.10
2019-03-15T17:54:03.329Z,33.90
2019-03-15T17:59:35.264Z,26.80
2019-03-15T18:02:04.379Z,25.10
2019-03-15T18:04:33.497Z,25.92
2019-03-15T18:07:06.085Z,21.02
2019-03-15T18:09:35.166Z,18.57
2019-03-15T18:12:04.284Z,14.38
2019-03-15T18:14:33.259Z,9.98
2019-03-15T18:17:02.332Z,16.37
2019-03-15T18:19:31.444Z,12.65
2019-03-15T18:22:00.574Z,10.82
2019-03-15T18:24:29.699Z,11.75
2019-03-15T18:26:58.810Z,14.43
2019-03-15T18:29:27.953Z,12.18
2019-03-15T18:31:57.076Z,9.30
2019-03-15T18:34:28.150Z,8.70
2019-03-15T18:36:57.282Z,13.43
2019-03-15T18:39:26.408Z,7.22
2019-03-15T18:41:55.517Z,8.30
2019-03-15T18:44:24.653Z,8.28
2019-03-15T18:46:53.767Z,13.55
2019-03-15T18:49:22.895Z,7.92
2019-03-15T18:51:52.020Z,5.72
2019-03-15T18:54:21.138Z,6.78
2019-03-15T18:56:50.280Z,9.40
2019-03-15T18:59:19.407Z,8.23
2019-03-15T19:01:48.299Z,7.25
2019-03-15T19:04:17.158Z,9.03
2019-03-15T19:06:46.043Z,5.97
2019-03-15T19:09:14.898Z,8.83
2019-03-15T19:14:12.163Z,6.17
2019-03-15T19:16:41.059Z,3.85
2019-03-15T19:19:10.133Z,5.55
2019-03-15T19:21:39.303Z,7.97
2019-03-15T19:24:08.376Z,5.30
2019-03-15T19:26:37.491Z,6.10
2019-03-15T19:29:06.870Z,5.97
2019-03-15T19:31:35.756Z,6.40
2019-03-15T19:34:04.842Z,3.67
2019-03-15T19:36:33.968Z,5.25
2019-03-15T19:39:04.259Z,3.85
2019-03-15T19:41:33.378Z,5.29
2019-03-15T19:44:02.521Z,8.35
2019-03-15T19:46:31.620Z,4.47
2019-03-15T19:49:00.730Z,5.15
2019-03-15T19:51:29.869Z,3.90
2019-03-15T19:53:58.997Z,4.72
2019-03-15T19:56:28.082Z,3.47
2019-03-15T20:01:28.861Z,5.22
2019-03-15T20:03:56.484Z,3.12
2019-03-15T20:06:25.612Z,2.35
2019-03-15T20:08:54.730Z,4.17
2019-03-15T20:11:23.889Z,3.33
2019-03-15T20:16:21.433Z,3.33
2019-03-15T20:18:50.547Z,2.40
2019-03-15T20:21:19.676Z,6.15
2019-03-15T20:23:49.019Z,4.58
2019-03-15T20:26:18.143Z,3.85
2019-03-15T20:28:47.300Z,6.70
2019-03-15T20:31:17.555Z,2.40
2019-03-15T20:33:46.670Z,1.72
2019-03-15T20:36:15.812Z,3.92
2019-03-15T20:38:44.937Z,2.37
2019-03-15T20:41:19.499Z,2.80
2019-03-15T20:43:47.048Z,2.02
2019-03-15T20:46:16.215Z,3.80
2019-03-15T20:48:45.281Z,2.30
2019-03-15T20:51:14.414Z,2.42
2019-03-15T20:53:43.524Z,2.12
2019-03-15T20:56:12.632Z,3.27
2019-03-15T20:58:41.767Z,4.85
2019-03-15T21:01:10.887Z,3.33
2019-03-15T21:03:39.787Z,2.30
2019-03-15T21:06:08.910Z,3.95
2019-03-15T21:08:38.045Z,5.50
2019-03-15T21:11:07.163Z,8.93
2019-03-15T21:13:36.300Z,6.78
2019-03-15T21:18:34.174Z,2.22
2019-03-15T21:21:03.289Z,9.60
2019-03-15T21:23:32.654Z,3.95
2019-03-15T21:26:01.771Z,4.62
2019-03-15T21:28:30.682Z,2.25
2019-03-15T21:30:59.538Z,4.85
2019-03-15T21:33:28.399Z,4.30
2019-03-15T21:35:57.821Z,5.67
2019-03-15T21:40:55.118Z,3.92
2019-03-15T21:43:24.024Z,2.67
2019-03-15T21:45:53.093Z,4.55
2019-03-15T21:48:22.206Z,3.02
2019-03-15T21:50:53.365Z,1.67
2019-03-15T21:53:22.483Z,2.50
2019-03-15T21:55:51.609Z,6.05
2019-03-15T21:58:20.719Z,3.72
2019-03-15T22:01:01.673Z,5.55
2019-03-15T22:03:20.664Z,3.65
2019-03-15T22:05:49.784Z,2.25
2019-03-15T22:08:18.897Z,1.80
2019-03-15T22:10:48.017Z,2.67
2019-03-15T22:13:17.132Z,2.83
2019-03-15T22:15:46.241Z,3.20
2019-03-15T22:18:15.350Z,2.95
2019-03-15T22:20:44.474Z,2.08
2019-03-15T22:23:13.592Z,4.50
2019-03-15T22:25:42.704Z,3.77
2019-03-15T22:28:11.913Z,1.70
2019-03-15T22:30:41.026Z,2.50
2019-03-15T22:33:10.146Z,1.87
2019-03-15T22:35:39.291Z,6.08
2019-03-15T22:38:08.389Z,1.80
2019-03-15T22:40:37.586Z,1.90
2019-03-15T22:43:06.790Z,1.92
2019-03-15T22:45:35.697Z,2.22
2019-03-15T22:48:04.765Z,2.15
2019-03-15T22:50:33.888Z,1.70
2019-03-15T22:53:02.996Z,1.92
2019-03-15T22:55:32.118Z,1.87
2019-03-15T22:58:01.238Z,2.20
2019-03-15T23:00:37.503Z,4.25
2019-03-15T23:03:06.401Z,1.87
2019-03-15T23:05:35.458Z,5.03
2019-03-15T23:08:04.571Z,4.20
2019-03-15T23:10:33.702Z,2.67
2019-03-15T23:13:02.821Z,1.75
2019-03-15T23:15:31.942Z,1.80
2019-03-15T23:18:01.053Z,2.27
2019-03-15T23:20:30.174Z,2.67
2019-03-15T23:22:59.277Z,2.45
2019-03-15T23:25:28.418Z,2.27
2019-03-15T23:27:57.526Z,8.13
2019-03-15T23:30:26.637Z,4.20
2019-03-15T23:32:56.009Z,2.08
2019-03-15T23:35:25.123Z,1.70
2019-03-15T23:37:54.243Z,3.30
2019-03-15T23:40:23.154Z,3.50
2019-03-15T23:42:52.227Z,4.00
2019-03-15T23:45:21.337Z,1.85
2019-03-15T23:47:50.479Z,1.77
2019-03-15T23:50:19.590Z,2.33
2019-03-15T23:52:48.708Z,4.78
2019-03-15T23:55:17.921Z,1.55
2019-03-15T23:57:46.812Z,2.72
